createdAt,value
2022-10-12T00:00:36.587Z,7.1
2022-10-12T00:01:36.615Z,7.1
2022-10-12T00:02:36.528Z,7
2022-10-12T00:03:36.547Z,7
2022-10-12T00:04:36.573Z,7
2022-10-12T00:05:36.538Z,7
2022-10-12T00:06:36.536Z,6.9
2022-10-12T00:07:36.913Z,6.9
2022-10-12T00:08:36.586Z,6.8
2022-10-12T00:09:36.599Z,6.8
2022-10-12T00:10:36.547Z,6.8
2022-10-12T00:11:36.548Z,6.9
2022-10-12T00:12:36.557Z,6.9
2022-10-12T00:13:36.538Z,6.9
2022-10-12T00:14:36.637Z,6.8
2022-10-12T00:15:36.543Z,6.9
2022-10-12T00:16:36.588Z,6.9
2022-10-12T00:17:36.986Z,6.8
2022-10-12T00:18:36.537Z,6.9
2022-10-12T00:19:36.558Z,6.8
2022-10-12T00:20:36.535Z,6.7
2022-10-12T00:21:36.520Z,6.7
2022-10-12T00:22:36.552Z,6.8
2022-10-12T00:23:36.525Z,6.8
2022-10-12T00:24:40.595Z,6.8
2022-10-12T00:25:36.528Z,6.8
2022-10-12T00:26:36.530Z,6.8
2022-10-12T00:27:36.876Z,6.8
2022-10-12T00:28:36.625Z,6.8
2022-10-12T00:29:36.579Z,6.7
2022-10-12T00:30:36.528Z,6.6
2022-10-12T00:31:36.591Z,6.6
2022-10-12T00:32:36.567Z,6.6
2022-10-12T00:33:36.545Z,6.5
2022-10-12T00:34:36.575Z,6.5
2022-10-12T00:35:36.539Z,6.5
2022-10-12T00:36:36.565Z,6.5
2022-10-12T00:37:36.934Z,6.4
2022-10-12T00:38:36.801Z,6.5
2022-10-12T00:39:36.759Z,6.4
2022-10-12T00:40:36.588Z,6.3
2022-10-12T00:41:36.532Z,6.2
2022-10-12T00:42:36.614Z,6.2
2022-10-12T00:43:36.535Z,6.2
2022-10-12T00:44:36.562Z,6.1
2022-10-12T00:45:36.564Z,6.1
2022-10-12T00:46:36.548Z,6.1
2022-10-12T00:47:37.034Z,6.1
2022-10-12T00:48:36.927Z,6.1
2022-10-12T00:49:36.551Z,6.2
2022-10-12T00:50:36.541Z,6.2
2022-10-12T00:51:36.529Z,6.1
2022-10-12T00:52:36.563Z,6.1
2022-10-12T00:53:36.632Z,6.1
2022-10-12T00:54:36.558Z,6.1
2022-10-12T00:55:36.597Z,6.2
2022-10-12T00:56:36.617Z,6.1
2022-10-12T00:57:37.031Z,6.2
2022-10-12T00:58:36.526Z,6.2
2022-10-12T00:59:36.557Z,6.2
2022-10-12T01:00:36.593Z,6.2
2022-10-12T01:01:36.545Z,6.2
2022-10-12T01:02:36.528Z,6.1
2022-10-12T01:03:36.575Z,6.2
2022-10-12T01:04:36.649Z,6.2
2022-10-12T01:05:36.559Z,6.3
2022-10-12T01:06:36.550Z,6.2
2022-10-12T01:07:37.026Z,6.3
2022-10-12T01:08:36.554Z,6.2
2022-10-12T01:09:36.567Z,6.2
2022-10-12T01:10:36.542Z,6.2
2022-10-12T01:11:36.583Z,6.2
2022-10-12T01:12:36.537Z,6.2
2022-10-12T01:13:36.544Z,6.2
2022-10-12T01:14:36.545Z,6.1
2022-10-12T01:15:36.544Z,6.1
2022-10-12T01:16:36.567Z,6.1
2022-10-12T01:17:36.920Z,6.1
2022-10-12T01:18:36.599Z,6.2
2022-10-12T01:19:36.603Z,6.1
2022-10-12T01:20:36.542Z,6
2022-10-12T01:21:36.540Z,6.1
2022-10-12T01:22:36.551Z,6
2022-10-12T01:23:36.533Z,6.1
2022-10-12T01:24:36.566Z,6.1
2022-10-12T01:25:36.532Z,6.1
2022-10-12T01:26:36.590Z,6.1
2022-10-12T01:27:36.982Z,6
2022-10-12T01:28:36.611Z,6
2022-10-12T01:29:36.552Z,6.1
2022-10-12T01:30:36.529Z,6.1
2022-10-12T01:31:36.535Z,6.1
2022-10-12T01:32:36.589Z,6.1
2022-10-12T01:33:36.561Z,6
2022-10-12T01:34:36.609Z,6
2022-10-12T01:35:36.615Z,6
2022-10-12T01:36:36.544Z,5.9
2022-10-12T01:37:36.887Z,5.9
2022-10-12T01:43:36.568Z,5.8
2022-10-12T01:44:40.520Z,5.8
2022-10-12T01:45:36.554Z,5.8
2022-10-12T01:46:36.619Z,5.8
2022-10-12T01:47:36.922Z,5.8
2022-10-12T01:48:36.571Z,5.8
2022-10-12T01:49:36.598Z,5.8
2022-10-12T01:50:36.606Z,5.8
2022-10-12T01:51:36.545Z,5.8
2022-10-12T01:52:36.541Z,5.9
2022-10-12T01:53:36.548Z,5.9
2022-10-12T01:54:36.534Z,6
2022-10-12T01:55:36.535Z,6
2022-10-12T01:56:36.581Z,6.1
2022-10-12T01:57:37.209Z,6.1
2022-10-12T01:58:36.703Z,6.1
2022-10-12T01:59:36.769Z,6
2022-10-12T02:00:36.734Z,5.9
2022-10-12T02:01:36.844Z,5.8
2022-10-12T02:02:36.816Z,5.8
2022-10-12T02:03:36.906Z,5.7
2022-10-12T02:04:36.838Z,5.7
2022-10-12T02:05:36.909Z,5.7
2022-10-12T02:06:36.866Z,5.6
2022-10-12T02:07:36.893Z,5.6
2022-10-12T02:08:36.546Z,5.6
2022-10-12T02:09:36.541Z,5.6
2022-10-12T02:10:36.537Z,5.6
2022-10-12T02:11:36.601Z,5.6
2022-10-12T02:12:36.547Z,5.5
2022-10-12T02:13:36.594Z,5.6
2022-10-12T02:14:36.629Z,5.6
2022-10-12T02:15:36.563Z,5.7
2022-10-12T02:16:36.541Z,5.7
2022-10-12T02:17:36.840Z,5.7
2022-10-12T02:18:36.565Z,5.6
2022-10-12T02:19:36.540Z,5.7
2022-10-12T02:20:36.548Z,5.7
2022-10-12T02:21:36.585Z,5.7
2022-10-12T02:22:36.569Z,5.7
2022-10-12T02:23:36.544Z,5.7
2022-10-12T02:24:36.556Z,5.7
2022-10-12T02:25:36.557Z,5.7
2022-10-12T02:26:36.536Z,5.7
2022-10-12T02:27:36.851Z,5.7
2022-10-12T02:28:36.699Z,5.7
2022-10-12T02:29:36.584Z,5.7
2022-10-12T02:30:36.568Z,5.7
2022-10-12T02:31:36.552Z,5.8
2022-10-12T02:32:36.537Z,5.8
2022-10-12T02:33:36.542Z,5.8
2022-10-12T02:34:36.548Z,5.9
2022-10-12T02:35:36.559Z,5.8
2022-10-12T02:36:36.581Z,5.8
2022-10-12T02:37:36.985Z,5.8
2022-10-12T02:38:36.529Z,5.9
2022-10-12T02:39:36.650Z,5.8
2022-10-12T02:40:36.544Z,5.8
2022-10-12T02:41:36.538Z,5.8
2022-10-12T02:43:05.374Z,5.8
2022-10-12T02:43:36.542Z,5.8
2022-10-12T02:44:36.585Z,5.8
2022-10-12T02:45:36.627Z,5.8
2022-10-12T02:46:36.564Z,5.7
2022-10-12T02:47:36.890Z,5.6
2022-10-12T02:48:36.552Z,5.6
2022-10-12T02:49:36.571Z,5.6
2022-10-12T02:50:36.606Z,5.7
2022-10-12T02:51:36.540Z,5.6
2022-10-12T02:52:36.612Z,5.6
2022-10-12T02:53:36.630Z,5.6
2022-10-12T02:54:36.540Z,5.7
2022-10-12T02:55:36.543Z,5.7
2022-10-12T02:56:36.555Z,5.8
2022-10-12T02:57:36.837Z,5.7
2022-10-12T02:58:36.567Z,5.7
2022-10-12T02:59:36.532Z,5.7
2022-10-12T03:00:36.587Z,5.7
2022-10-12T03:01:36.628Z,5.8
2022-10-12T03:02:36.557Z,5.7
2022-10-12T03:03:36.533Z,5.8
2022-10-12T03:04:36.536Z,5.7
2022-10-12T03:05:36.533Z,5.7
2022-10-12T03:06:36.553Z,5.7
2022-10-12T03:07:37.046Z,5.6
2022-10-12T03:08:36.572Z,5.7
2022-10-12T03:09:36.541Z,5.6
2022-10-12T03:10:36.568Z,5.7
2022-10-12T03:11:36.566Z,5.6
2022-10-12T03:12:36.540Z,5.6
2022-10-12T03:13:36.548Z,5.7
2022-10-12T03:14:36.560Z,5.7
2022-10-12T03:15:36.720Z,5.7
2022-10-12T03:16:36.581Z,5.7
2022-10-12T03:17:36.901Z,5.7
2022-10-12T03:18:36.595Z,5.7
2022-10-12T03:19:36.603Z,5.6
2022-10-12T03:20:36.644Z,5.6
2022-10-12T03:21:36.624Z,5.6
2022-10-12T03:22:36.664Z,5.5
2022-10-12T03:23:36.565Z,5.6
2022-10-12T03:24:36.571Z,5.6
2022-10-12T03:25:36.537Z,5.4
2022-10-12T03:26:36.543Z,5.5
2022-10-12T03:27:36.954Z,5.4
2022-10-12T03:28:36.642Z,5.4
2022-10-12T03:29:36.537Z,5.4
2022-10-12T03:30:36.615Z,5.4
2022-10-12T03:31:36.572Z,5.3
2022-10-12T03:32:36.614Z,5.2
2022-10-12T03:33:36.536Z,5.3
2022-10-12T03:34:36.587Z,5.3
2022-10-12T03:35:36.612Z,5.3
2022-10-12T03:36:36.605Z,5.4
2022-10-12T03:37:36.881Z,5.3
2022-10-12T03:38:36.615Z,5.3
2022-10-12T03:39:36.584Z,5.2
2022-10-12T03:40:36.642Z,5.1
2022-10-12T03:41:36.658Z,5.2
2022-10-12T03:42:36.538Z,5.1
2022-10-12T03:43:36.562Z,5.1
2022-10-12T03:44:36.557Z,5.1
2022-10-12T03:45:36.565Z,5.1
2022-10-12T03:46:36.592Z,5.1
2022-10-12T03:47:36.949Z,5.2
2022-10-12T03:48:36.546Z,5.2
2022-10-12T03:49:36.565Z,5.2
2022-10-12T03:50:36.563Z,5.2
2022-10-12T03:51:36.560Z,5.3
2022-10-12T03:52:36.567Z,5.2
2022-10-12T03:53:36.526Z,5.1
2022-10-12T03:54:36.592Z,5.2
2022-10-12T03:55:36.597Z,5.2
2022-10-12T03:56:36.534Z,5.1
2022-10-12T03:57:37.007Z,5.2
2022-10-12T03:58:36.540Z,5.1
2022-10-12T03:59:36.541Z,5.1
2022-10-12T04:00:36.601Z,5.1
2022-10-12T04:01:36.625Z,5.2
2022-10-12T04:02:36.588Z,5.2
2022-10-12T04:03:36.624Z,5.1
2022-10-12T04:04:36.561Z,5.2
2022-10-12T04:05:36.549Z,5.2
2022-10-12T04:06:36.535Z,5.2
2022-10-12T04:07:36.846Z,5.2
2022-10-12T04:08:36.537Z,5.2
2022-10-12T04:09:36.549Z,5
2022-10-12T04:10:36.589Z,5
2022-10-12T04:11:36.619Z,4.9
2022-10-12T04:12:36.560Z,5
2022-10-12T04:13:36.541Z,4.9
2022-10-12T04:14:36.573Z,4.9
2022-10-12T04:15:36.547Z,5.1
2022-10-12T04:16:36.551Z,5
2022-10-12T04:17:36.849Z,4.9
2022-10-12T04:18:36.598Z,4.9
2022-10-12T04:19:36.529Z,4.9
2022-10-12T04:20:36.542Z,4.9
2022-10-12T04:21:36.535Z,4.9
2022-10-12T04:22:36.627Z,4.8
2022-10-12T04:23:36.548Z,4.8
2022-10-12T04:24:36.543Z,4.7
2022-10-12T04:25:36.598Z,4.7
2022-10-12T04:26:36.594Z,4.6
2022-10-12T04:27:36.801Z,4.6
2022-10-12T04:28:36.573Z,4.6
2022-10-12T04:29:36.550Z,4.6
2022-10-12T04:30:36.552Z,4.6
2022-10-12T04:31:36.547Z,4.5
2022-10-12T04:32:36.537Z,4.6
2022-10-12T04:33:36.587Z,4.6
2022-10-12T04:34:36.637Z,4.6
2022-10-12T04:35:36.557Z,4.5
2022-10-12T04:36:36.648Z,4.6
2022-10-12T04:37:36.844Z,4.6
2022-10-12T04:38:36.560Z,4.6
2022-10-12T04:39:36.596Z,4.6
2022-10-12T04:40:36.671Z,4.6
2022-10-12T04:41:36.599Z,4.6
2022-10-12T04:42:36.625Z,4.6
2022-10-12T04:43:36.572Z,4.7
2022-10-12T04:44:36.557Z,4.7
2022-10-12T04:45:36.564Z,4.8
2022-10-12T04:46:36.564Z,4.7
2022-10-12T04:47:36.866Z,4.7
2022-10-12T04:48:36.551Z,4.6
2022-10-12T04:49:36.595Z,4.5
2022-10-12T04:50:36.626Z,4.5
2022-10-12T04:51:36.536Z,4.4
2022-10-12T04:52:36.550Z,4.5
2022-10-12T04:53:36.616Z,4.4
2022-10-12T04:54:36.554Z,4.4
2022-10-12T04:55:36.537Z,4.4
2022-10-12T04:56:36.547Z,4.4
2022-10-12T04:57:37.058Z,4.4
2022-10-12T04:58:36.575Z,4.4
2022-10-12T04:59:36.547Z,4.3
2022-10-12T05:00:36.545Z,4.3
2022-10-12T05:01:36.606Z,4.3
2022-10-12T05:02:36.551Z,4.3
2022-10-12T05:03:41.699Z,4.3
2022-10-12T05:04:36.620Z,4.3
2022-10-12T05:05:36.583Z,4.3
2022-10-12T05:06:36.546Z,4.3
2022-10-12T05:07:36.847Z,4.3
2022-10-12T05:08:36.580Z,4.4
2022-10-12T05:09:36.541Z,4.3
2022-10-12T05:10:36.562Z,4.2
2022-10-12T05:11:36.531Z,4.2
2022-10-12T05:12:36.969Z,4.3
2022-10-12T05:13:36.627Z,4.3
2022-10-12T05:14:36.542Z,4.3
2022-10-12T05:15:36.562Z,4.4
2022-10-12T05:16:36.551Z,4.4
2022-10-12T05:17:36.829Z,4.4
2022-10-12T05:18:36.607Z,4.4
2022-10-12T05:19:36.564Z,4.5
2022-10-12T05:20:36.593Z,4.5
2022-10-12T05:21:36.667Z,4.6
2022-10-12T05:22:36.611Z,4.6
2022-10-12T05:23:36.624Z,4.5
2022-10-12T05:24:36.586Z,4.6
2022-10-12T05:25:36.558Z,4.6
2022-10-12T05:26:36.634Z,4.6
2022-10-12T05:27:36.833Z,4.7
2022-10-12T05:28:40.824Z,4.7
2022-10-12T05:29:36.650Z,4.6
2022-10-12T05:30:36.670Z,4.7
2022-10-12T05:31:36.566Z,4.7
2022-10-12T05:32:37.050Z,4.7
2022-10-12T05:33:36.571Z,4.8
2022-10-12T05:34:36.545Z,4.8
2022-10-12T05:35:36.599Z,4.8
2022-10-12T05:36:36.580Z,4.9
2022-10-12T05:37:36.928Z,4.9
2022-10-12T05:38:36.629Z,4.9
2022-10-12T05:39:36.622Z,4.9
2022-10-12T05:40:36.554Z,4.9
2022-10-12T05:41:36.545Z,5
2022-10-12T05:42:37.071Z,4.9
2022-10-12T05:43:36.656Z,5
2022-10-12T05:44:36.650Z,4.9
2022-10-12T05:45:36.563Z,4.9
2022-10-12T05:46:36.669Z,4.8
2022-10-12T05:47:36.891Z,4.8
2022-10-12T05:48:36.786Z,4.8
2022-10-12T05:49:36.573Z,4.9
2022-10-12T05:50:36.668Z,4.9
2022-10-12T05:51:36.690Z,4.9
2022-10-12T05:52:37.078Z,4.9
2022-10-12T05:53:36.666Z,4.9
2022-10-12T05:54:36.693Z,4.8
2022-10-12T05:55:36.805Z,4.8
2022-10-12T05:56:36.828Z,4.8
2022-10-12T05:57:36.852Z,4.7
2022-10-12T05:58:36.702Z,4.8
2022-10-12T05:59:36.574Z,4.8
2022-10-12T06:00:36.625Z,4.8
2022-10-12T06:01:36.610Z,4.9
2022-10-12T06:02:36.899Z,4.8
2022-10-12T06:03:36.530Z,4.8
2022-10-12T06:04:36.539Z,4.9
2022-10-12T06:05:36.586Z,4.8
2022-10-12T06:06:36.585Z,4.8
2022-10-12T06:07:36.587Z,4.7
2022-10-12T06:08:36.553Z,4.7
2022-10-12T06:09:36.612Z,4.8
2022-10-12T06:10:36.656Z,4.7
2022-10-12T06:11:36.829Z,4.7
2022-10-12T06:12:36.907Z,4.8
2022-10-12T06:13:36.654Z,4.7
2022-10-12T06:14:36.652Z,4.8
2022-10-12T06:15:36.648Z,4.7
2022-10-12T06:16:36.571Z,4.6
2022-10-12T06:17:36.671Z,4.5
2022-10-12T06:18:36.544Z,4.4
2022-10-12T06:19:36.561Z,4.4
2022-10-12T06:20:36.578Z,4.4
2022-10-12T06:21:36.548Z,4.4
2022-10-12T06:22:37.168Z,4.5
2022-10-12T06:23:36.762Z,4.5
2022-10-12T06:24:36.620Z,4.6
2022-10-12T06:25:36.622Z,4.6
2022-10-12T06:26:36.647Z,4.7
2022-10-12T06:27:36.636Z,4.8
2022-10-12T06:28:36.703Z,4.8
2022-10-12T06:29:36.658Z,4.9
2022-10-12T06:30:36.582Z,4.9
2022-10-12T06:31:36.619Z,4.9
2022-10-12T06:32:37.009Z,5
2022-10-12T06:33:36.557Z,5.1
2022-10-12T06:34:36.578Z,5.1
2022-10-12T06:35:36.573Z,5.2
2022-10-12T06:36:36.544Z,5.3
2022-10-12T06:37:49.686Z,5.4
2022-10-12T06:38:36.629Z,5.4
2022-10-12T06:39:36.614Z,5.4
2022-10-12T06:40:36.622Z,5.4
2022-10-12T06:41:36.649Z,5.4
2022-10-12T06:42:36.978Z,5.3
2022-10-12T06:43:36.561Z,5.2
2022-10-12T06:44:36.535Z,5.2
2022-10-12T06:45:36.557Z,5.2
2022-10-12T06:46:36.669Z,5.2
2022-10-12T06:47:36.543Z,5.3
2022-10-12T06:48:36.568Z,5.3
2022-10-12T06:49:36.565Z,5.4
2022-10-12T06:50:36.575Z,5.4
2022-10-12T06:51:36.588Z,5.5
2022-10-12T06:52:36.987Z,5.7
2022-10-12T06:53:36.719Z,5.8
2022-10-12T06:54:36.603Z,5.8
2022-10-12T06:55:36.614Z,5.8
2022-10-12T06:56:36.543Z,5.8
2022-10-12T06:57:36.572Z,5.8
2022-10-12T06:58:36.639Z,5.8
2022-10-12T06:59:36.654Z,5.8
2022-10-12T07:00:36.648Z,5.8
2022-10-12T07:01:36.767Z,5.9
2022-10-12T07:02:37.071Z,5.9
2022-10-12T07:03:36.552Z,5.9
2022-10-12T07:04:36.593Z,5.9
2022-10-12T07:05:36.591Z,6
2022-10-12T07:06:36.580Z,6.1
2022-10-12T07:07:36.693Z,6.2
2022-10-12T07:08:36.574Z,6.2
2022-10-12T07:09:36.592Z,6.3
2022-10-12T07:10:36.624Z,6.3
2022-10-12T07:11:36.623Z,6.4
2022-10-12T07:12:36.998Z,6.4
2022-10-12T07:13:36.633Z,6.4
2022-10-12T07:14:36.637Z,6.3
2022-10-12T07:15:36.639Z,6.5
2022-10-12T07:16:36.648Z,6.6
2022-10-12T07:17:36.990Z,6.7
2022-10-12T07:18:36.566Z,6.7
2022-10-12T07:19:36.560Z,6.7
2022-10-12T07:20:36.549Z,6.6
2022-10-12T07:21:36.541Z,6.8
2022-10-12T07:22:36.552Z,6.8
2022-10-12T07:23:36.558Z,6.8
2022-10-12T07:24:36.696Z,6.8
2022-10-12T07:25:36.608Z,6.8
2022-10-12T07:26:36.608Z,6.9
2022-10-12T07:27:36.933Z,6.9
2022-10-12T07:28:36.717Z,6.9
2022-10-12T07:29:36.545Z,7
2022-10-12T07:30:36.628Z,7
2022-10-12T07:31:36.644Z,7.1
2022-10-12T07:32:36.656Z,7.1
2022-10-12T07:33:36.696Z,7.1
2022-10-12T07:34:36.556Z,7.1
2022-10-12T07:35:51.499Z,7.2
2022-10-12T07:36:58.023Z,7.2
2022-10-12T07:37:36.746Z,7.3
2022-10-12T07:38:36.606Z,7.4
2022-10-12T07:39:36.605Z,7.4
2022-10-12T07:40:36.608Z,7.5
2022-10-12T07:41:36.643Z,7.7
2022-10-12T07:42:48.849Z,7.8
2022-10-12T07:43:36.628Z,7.8
2022-10-12T07:44:36.540Z,7.9
2022-10-12T07:45:36.550Z,8
2022-10-12T07:46:36.657Z,8.1
2022-10-12T07:47:36.880Z,8.1
2022-10-12T07:48:36.582Z,8.1
2022-10-12T07:49:36.612Z,8.2
2022-10-12T07:50:36.560Z,8.2
2022-10-12T07:51:36.547Z,8.1
2022-10-12T07:52:36.551Z,8.1
2022-10-12T07:53:36.609Z,8.3
2022-10-12T07:54:36.601Z,8.3
2022-10-12T07:55:36.604Z,8.3
2022-10-12T07:56:36.613Z,8.3
2022-10-12T07:57:36.940Z,8.3
2022-10-12T07:58:36.620Z,8.4
2022-10-12T07:59:36.650Z,8.3
2022-10-12T08:00:36.643Z,8.3
2022-10-12T08:01:36.716Z,8.4
2022-10-12T08:02:36.559Z,8.5
2022-10-12T08:03:36.605Z,8.6
2022-10-12T08:04:36.661Z,8.7
2022-10-12T08:05:36.566Z,8.7
2022-10-12T08:06:36.556Z,8.7
2022-10-12T08:07:36.831Z,8.8
2022-10-12T08:08:36.588Z,8.8
2022-10-12T08:09:36.602Z,8.9
2022-10-12T08:10:36.598Z,8.9
2022-10-12T08:11:36.608Z,8.9
2022-10-12T08:12:36.714Z,9
2022-10-12T08:13:36.616Z,9.1
2022-10-12T08:14:36.621Z,9
2022-10-12T08:15:36.606Z,9.1
2022-10-12T08:16:36.553Z,9.2
2022-10-12T08:17:36.978Z,9.3
2022-10-12T08:18:36.540Z,9.4
2022-10-12T08:19:36.589Z,9.4
2022-10-12T08:20:36.668Z,9.4
2022-10-12T08:21:36.574Z,9.5
2022-10-12T08:22:36.560Z,9.6
2022-10-12T08:23:41.619Z,9.5
2022-10-12T08:24:36.590Z,9.6
2022-10-12T08:25:36.632Z,9.5
2022-10-12T08:26:36.606Z,9.6
2022-10-12T08:27:36.925Z,9.5
2022-10-12T08:28:36.689Z,9.7
2022-10-12T08:29:36.546Z,9.8
2022-10-12T08:30:36.574Z,9.9
2022-10-12T08:31:36.621Z,10
2022-10-12T08:32:36.541Z,10.1
2022-10-12T08:33:36.637Z,10.1
2022-10-12T08:34:36.652Z,10.2
2022-10-12T08:35:36.575Z,10.2
2022-10-12T08:36:36.558Z,10.2
2022-10-12T08:37:36.721Z,10.3
2022-10-12T08:38:36.539Z,10.4
2022-10-12T08:39:36.550Z,10.2
2022-10-12T08:40:36.550Z,10.4
2022-10-12T08:41:36.549Z,10.6
2022-10-12T08:42:36.593Z,10.8
2022-10-12T08:43:36.691Z,10.9
2022-10-12T08:44:36.632Z,10.9
2022-10-12T08:45:36.623Z,11
2022-10-12T08:46:36.558Z,11
2022-10-12T08:47:36.909Z,11.2
2022-10-12T08:48:36.533Z,11.3
2022-10-12T08:49:36.652Z,11.4
2022-10-12T08:50:36.675Z,11.4
2022-10-12T08:51:36.638Z,11.6
2022-10-12T08:52:36.778Z,11.5
2022-10-12T08:53:36.680Z,11.6
2022-10-12T08:54:36.529Z,11.7
2022-10-12T08:55:36.605Z,11.8
2022-10-12T08:56:36.709Z,11.8
2022-10-12T08:57:36.610Z,11.7
2022-10-12T08:58:36.590Z,11.5
2022-10-12T08:59:36.628Z,11.6
2022-10-12T09:00:36.638Z,11.5
2022-10-12T09:01:36.719Z,11.7
2022-10-12T09:02:36.957Z,11.9
2022-10-12T09:03:36.649Z,11.9
2022-10-12T09:04:36.552Z,12
2022-10-12T09:05:36.558Z,12.2
2022-10-12T09:06:36.578Z,12.3
2022-10-12T09:07:36.543Z,12.2
2022-10-12T09:08:36.570Z,12.4
2022-10-12T09:09:41.530Z,12.5
2022-10-12T09:10:36.699Z,12.7
2022-10-12T09:11:36.595Z,12.7
2022-10-12T09:12:36.793Z,12.8
2022-10-12T09:13:36.602Z,13
2022-10-12T09:14:36.637Z,12.9
2022-10-12T09:15:36.629Z,12.8
2022-10-12T09:16:36.641Z,12.9
2022-10-12T09:17:36.644Z,13
2022-10-12T09:18:40.581Z,13
2022-10-12T09:19:36.560Z,13
2022-10-12T09:20:36.559Z,13
2022-10-12T09:21:36.603Z,12.8
2022-10-12T09:22:36.888Z,12.8
2022-10-12T09:23:36.534Z,13
2022-10-12T09:24:36.618Z,13.1
2022-10-12T09:25:36.550Z,13.2
2022-10-12T09:26:36.560Z,13.3
2022-10-12T09:27:36.538Z,13.2
2022-10-12T09:28:37.244Z,13.3
2022-10-12T09:29:36.627Z,13.3
2022-10-12T09:30:36.728Z,13.4
2022-10-12T09:31:36.542Z,13.6
2022-10-12T09:32:36.597Z,13.7
2022-10-12T09:33:36.648Z,13.9
2022-10-12T09:34:36.651Z,13.9
2022-10-12T09:35:36.653Z,13.9
2022-10-12T09:36:36.565Z,13.8
2022-10-12T09:37:36.674Z,13.7
2022-10-12T09:38:36.645Z,13.6
2022-10-12T09:39:36.588Z,13.5
2022-10-12T09:40:36.578Z,13.4
2022-10-12T09:41:36.592Z,13.5
2022-10-12T09:42:36.601Z,13.6
2022-10-12T09:43:36.536Z,13.5
2022-10-12T09:44:36.561Z,13.5
2022-10-12T09:45:36.595Z,13.5
2022-10-12T09:46:36.641Z,13.3
2022-10-12T09:47:36.630Z,13.3
2022-10-12T09:48:36.659Z,13.3
2022-10-12T09:49:36.654Z,13.4
2022-10-12T09:50:36.548Z,13.4
2022-10-12T09:51:36.666Z,13.4
2022-10-12T09:52:36.599Z,13.3
2022-10-12T09:53:36.619Z,13.2
2022-10-12T09:54:36.635Z,13.5
2022-10-12T09:55:36.578Z,13.5
2022-10-12T09:56:36.546Z,13.5
2022-10-12T09:57:36.547Z,13.7
2022-10-12T09:58:36.605Z,13.7
2022-10-12T09:59:36.614Z,13.8
2022-10-12T10:00:36.631Z,14
2022-10-12T10:01:36.640Z,14.1
2022-10-12T10:02:36.634Z,14
2022-10-12T10:03:36.668Z,14.2
2022-10-12T10:04:36.662Z,14.3
2022-10-12T10:05:36.655Z,14.5
2022-10-12T10:06:36.656Z,14.7
2022-10-12T10:07:36.555Z,14.9
2022-10-12T10:08:36.710Z,15
2022-10-12T10:09:36.706Z,15.1
2022-10-12T10:10:36.552Z,15.2
2022-10-12T10:11:36.679Z,15.3
2022-10-12T10:12:36.699Z,15.4
2022-10-12T10:13:36.594Z,15.1
2022-10-12T10:14:36.705Z,15.3
2022-10-12T10:15:36.735Z,15.3
2022-10-12T10:16:36.720Z,15.2
2022-10-12T10:17:36.736Z,15.1
2022-10-12T10:18:36.697Z,15.3
2022-10-12T10:19:36.726Z,15.3
2022-10-12T10:20:36.854Z,15.2
2022-10-12T10:21:36.554Z,15.2
2022-10-12T10:22:36.552Z,15.1
2022-10-12T10:23:36.558Z,14.9
2022-10-12T10:24:36.602Z,15.1
2022-10-12T10:25:36.573Z,15.2
2022-10-12T10:26:36.548Z,15.4
2022-10-12T10:27:36.553Z,15.5
2022-10-12T10:28:36.596Z,15.5
2022-10-12T10:29:36.546Z,15.7
2022-10-12T10:30:40.819Z,15.8
2022-10-12T10:31:36.614Z,16
2022-10-12T10:32:36.630Z,15.9
2022-10-12T10:33:36.625Z,15.9
2022-10-12T10:34:36.581Z,16.4
2022-10-12T10:35:36.671Z,16.6
2022-10-12T10:36:36.661Z,16.8
2022-10-12T10:37:36.553Z,16.6
2022-10-12T10:38:36.554Z,16.8
2022-10-12T10:39:36.701Z,16.9
2022-10-12T10:40:36.761Z,16.6
2022-10-12T10:41:36.584Z,17.1
2022-10-12T10:42:36.692Z,17.2
2022-10-12T10:43:36.539Z,17.1
2022-10-12T10:44:36.626Z,17.2
2022-10-12T10:45:36.669Z,17
2022-10-12T10:46:36.556Z,16.5
2022-10-12T10:47:36.609Z,16.8
2022-10-12T10:48:36.742Z,17.1
2022-10-12T10:49:36.643Z,17.5
2022-10-12T10:50:36.555Z,17.4
2022-10-12T10:51:36.561Z,17.3
2022-10-12T10:52:36.659Z,17.3
2022-10-12T10:53:36.667Z,17.5
2022-10-12T10:54:36.590Z,17.9
2022-10-12T10:55:36.688Z,17.9
2022-10-12T10:56:36.706Z,17.9
2022-10-12T10:57:36.586Z,17.5
2022-10-12T10:58:36.596Z,17.4
2022-10-12T10:59:36.609Z,17.1
2022-10-12T11:00:39.733Z,16.9
2022-10-12T11:01:36.634Z,16.9
2022-10-12T11:02:36.564Z,17
2022-10-12T11:03:36.622Z,17.1
2022-10-12T11:04:36.644Z,17
2022-10-12T11:05:36.664Z,17
2022-10-12T11:06:36.562Z,17
2022-10-12T11:07:36.658Z,17.2
2022-10-12T11:08:36.664Z,17
2022-10-12T11:09:36.578Z,17.3
2022-10-12T11:10:36.676Z,17.4
2022-10-12T11:11:36.688Z,17.4
2022-10-12T11:12:36.555Z,17.3
2022-10-12T11:13:36.695Z,17.3
2022-10-12T11:14:36.545Z,17
2022-10-12T11:15:36.565Z,16.8
2022-10-12T11:16:36.611Z,16.8
2022-10-12T11:17:36.627Z,16.6
2022-10-12T11:18:36.629Z,16.5
2022-10-12T11:19:36.748Z,16.5
2022-10-12T11:20:36.639Z,16.7
2022-10-12T11:21:36.657Z,17
2022-10-12T11:22:36.658Z,17.3
2022-10-12T11:23:36.648Z,17.6
2022-10-12T11:24:36.787Z,17.9
2022-10-12T11:25:36.561Z,17.8
2022-10-12T11:26:36.614Z,18
2022-10-12T11:27:36.655Z,18.3
2022-10-12T11:28:36.764Z,18.2
2022-10-12T11:29:36.593Z,18.1
2022-10-12T11:30:36.675Z,18.1
2022-10-12T11:31:36.705Z,18.2
2022-10-12T11:32:36.771Z,18.6
2022-10-12T11:33:36.723Z,18.6
2022-10-12T11:34:36.728Z,18.5
2022-10-12T11:35:36.641Z,18.4
2022-10-12T11:36:36.710Z,18.4
2022-10-12T11:37:36.641Z,18.8
2022-10-12T11:38:36.654Z,18.8
2022-10-12T11:39:36.685Z,18.7
2022-10-12T11:41:00.092Z,19.1
2022-10-12T11:41:36.762Z,19.4
2022-10-12T11:42:41.079Z,19.5
2022-10-12T11:43:36.584Z,19.5
2022-10-12T11:44:36.593Z,19.6
2022-10-12T11:45:36.600Z,19.9
2022-10-12T11:46:36.608Z,19.8
2022-10-12T11:47:36.639Z,19.4
2022-10-12T11:48:36.619Z,19.9
2022-10-12T11:49:36.625Z,20.3
2022-10-12T11:50:36.739Z,20.8
2022-10-12T11:51:36.654Z,20.9
2022-10-12T11:52:36.657Z,21.1
2022-10-12T11:53:36.551Z,21.3
2022-10-12T11:54:36.578Z,21.9
2022-10-12T11:55:36.629Z,22.6
2022-10-12T11:56:36.577Z,23.2
2022-10-12T11:57:36.688Z,23.3
2022-10-12T11:58:59.426Z,23.3
2022-10-12T11:59:36.563Z,22.9
2022-10-12T12:00:36.702Z,22.6
2022-10-12T12:01:36.609Z,22.7
2022-10-12T12:02:36.621Z,22.9
2022-10-12T12:03:36.661Z,23
2022-10-12T12:04:44.572Z,22.7
2022-10-12T12:05:36.653Z,22
2022-10-12T12:06:36.641Z,22.2
2022-10-12T12:07:36.608Z,21.9
2022-10-12T12:08:36.569Z,21.4
2022-10-12T12:09:36.673Z,20.8
2022-10-12T12:10:36.669Z,20.4
2022-10-12T12:11:36.678Z,20.4
2022-10-12T12:12:36.716Z,20
2022-10-12T12:13:36.886Z,20
2022-10-12T12:14:36.708Z,19.6
2022-10-12T12:15:36.767Z,19.7
2022-10-12T12:16:36.739Z,19.7
2022-10-12T12:17:36.803Z,19.9
2022-10-12T12:18:36.576Z,19.9
2022-10-12T12:19:36.573Z,20.2
2022-10-12T12:20:36.860Z,20.3
2022-10-12T12:21:36.605Z,20.4
2022-10-12T12:22:36.649Z,20.3
2022-10-12T12:23:36.643Z,20.1
2022-10-12T12:24:39.014Z,19.9
2022-10-12T12:25:36.665Z,19.6
2022-10-12T12:26:36.684Z,20
2022-10-12T12:27:36.676Z,20.1
2022-10-12T12:28:36.765Z,20.3
2022-10-12T12:29:36.691Z,20.8
2022-10-12T12:30:36.593Z,21
2022-10-12T12:31:36.618Z,21.1
2022-10-12T12:32:36.560Z,21.2
2022-10-12T12:33:36.603Z,21.7
2022-10-12T12:34:36.573Z,21.9
2022-10-12T12:35:36.569Z,22
2022-10-12T12:36:36.620Z,21.9
2022-10-12T12:37:36.749Z,22
2022-10-12T12:38:36.668Z,21.4
2022-10-12T12:39:36.681Z,21
2022-10-12T12:40:36.668Z,21
2022-10-12T12:41:36.671Z,21.5
2022-10-12T12:42:36.684Z,22.2
2022-10-12T12:43:36.596Z,22.8
2022-10-12T12:44:36.694Z,23.3
2022-10-12T12:45:36.716Z,23.7
2022-10-12T12:46:36.605Z,24.3
2022-10-12T12:47:51.911Z,25.3
2022-10-12T12:48:36.636Z,25.2
2022-10-12T12:49:36.617Z,24.4
2022-10-12T12:50:36.592Z,24
2022-10-12T12:51:36.628Z,23.8
2022-10-12T12:52:36.634Z,23.8
2022-10-12T12:53:36.637Z,23.6
2022-10-12T12:54:36.665Z,23.1
2022-10-12T12:55:36.573Z,22.5
2022-10-12T12:56:36.576Z,21.9
2022-10-12T12:57:36.670Z,21.5
2022-10-12T12:58:36.685Z,20.9
2022-10-12T12:59:36.685Z,20.8
2022-10-12T13:00:38.917Z,20.4
2022-10-12T13:01:36.666Z,20.2
2022-10-12T13:02:36.621Z,19.9
2022-10-12T13:03:36.598Z,19.6
2022-10-12T13:04:36.632Z,19.4
2022-10-12T13:05:36.627Z,19.2
2022-10-12T13:06:36.629Z,19.1
2022-10-12T13:07:36.637Z,19
2022-10-12T13:08:36.660Z,18.9
2022-10-12T13:09:36.594Z,18.8
2022-10-12T13:10:36.657Z,19
2022-10-12T13:11:36.575Z,19.3
2022-10-12T13:12:36.675Z,19.3
2022-10-12T13:13:39.013Z,19.2
2022-10-12T13:14:36.696Z,19.3
2022-10-12T13:15:36.687Z,19.1
2022-10-12T13:17:30.123Z,19.2
2022-10-12T13:17:36.589Z,19.3
2022-10-12T13:18:47.002Z,19.2
2022-10-12T13:19:36.603Z,19.5
2022-10-12T13:20:36.572Z,19.6
2022-10-12T13:21:36.636Z,19.8
2022-10-12T13:22:36.626Z,19.9
2022-10-12T13:23:36.634Z,19.9
2022-10-12T13:24:36.613Z,20.1
2022-10-12T13:25:36.627Z,20.3
2022-10-12T13:26:36.646Z,20.7
2022-10-12T13:27:36.660Z,21
2022-10-12T13:28:36.752Z,21.7
2022-10-12T13:29:36.753Z,21.9
2022-10-12T13:30:36.777Z,21.9
2022-10-12T13:31:36.832Z,21.9
2022-10-12T13:32:36.746Z,22.7
2022-10-12T13:33:36.821Z,22.7
2022-10-12T13:34:36.863Z,22.6
2022-10-12T13:35:36.944Z,22.7
2022-10-12T13:36:36.948Z,22.8
2022-10-12T13:37:36.629Z,22.9
2022-10-12T13:38:36.642Z,23.3
2022-10-12T13:39:38.666Z,23.8
2022-10-12T13:40:36.659Z,24.3
2022-10-12T13:41:41.276Z,24.6
2022-10-12T13:42:36.667Z,24
2022-10-12T13:43:36.669Z,23.8
2022-10-12T13:44:36.692Z,23.7